sensor_id;sensor_type;location;lat;lon;timestamp;pressure;altitude;pressure_sealevel;temperature;humidity
59110;BME280;44895;47.438;18.978;2023-01-29T14:07:38;100824.75;;;0.46;100.00
59110;BME280;44895;47.438;18.978;2023-01-29T14:18:03;100847.78;;;0.20;100.00
59110;BME280;44895;47.438;18.978;2023-01-29T14:24:21;100842.03;;;0.10;100.00
59110;BME280;44895;47.438;18.978;2023-01-29T14:27:28;100846.97;;;0.20;100.00
59110;BME280;44895;47.438;18.978;2023-01-29T14:30:33;100849.44;;;0.35;100.00
59110;BME280;44895;47.438;18.978;2023-01-29T14:33:39;100846.34;;;0.18;100.00
59110;BME280;44895;47.438;18.978;2023-01-29T14:36:45;100854.38;;;0.24;100.00
59110;BME280;44895;47.438;18.978;2023-01-29T14:39:52;100848.22;;;0.10;100.00
59110;BME280;44895;47.438;18.978;2023-01-29T14:43:07;100851.47;;;0.39;100.00
59110;BME280;44895;47.438;18.978;2023-01-29T14:56:29;100853.13;;;0.13;100.00
59110;BME280;44895;47.438;18.978;2023-01-29T15:02:58;100848.41;;;0.02;100.00
59110;BME280;44895;47.438;18.978;2023-01-29T15:06:05;100856.44;;;0.15;100.00
59110;BME280;44895;47.438;18.978;2023-01-29T15:09:15;100860.13;;;-0.06;100.00
59110;BME280;44895;47.438;18.978;2023-01-29T15:12:39;100849.78;;;-0.36;100.00
59110;BME280;44895;47.438;18.978;2023-01-29T15:15:51;100846.56;;;-0.11;100.00
59110;BME280;44895;47.438;18.978;2023-01-29T15:19:11;100853.53;;;-0.10;100.00
59110;BME280;44895;47.438;18.978;2023-01-29T15:22:20;100852.53;;;-0.09;100.00
59110;BME280;44895;47.438;18.978;2023-01-29T15:25:28;100848.59;;;-0.13;100.00
59110;BME280;44895;47.438;18.978;2023-01-29T15:28:34;100855.59;;;-0.25;100.00
59110;BME280;44895;47.438;18.978;2023-01-29T15:31:39;100837.94;;;-0.06;100.00
59110;BME280;44895;47.438;18.978;2023-01-29T15:34:45;100838.13;;;-0.21;100.00
59110;BME280;44895;47.438;18.978;2023-01-29T15:41:17;100847.53;;;-0.39;100.00
59110;BME280;44895;47.438;18.978;2023-01-29T15:44:22;100851.59;;;-0.56;100.00
59110;BME280;44895;47.438;18.978;2023-01-29T15:47:30;100849.16;;;-0.51;100.00
59110;BME280;44895;47.438;18.978;2023-01-29T15:50:36;100848.91;;;-0.63;100.00
59110;BME280;44895;47.438;18.978;2023-01-29T15:53:54;100856.78;;;-0.35;100.00
59110;BME280;44895;47.438;18.978;2023-01-29T15:56:59;100859.03;;;-0.45;100.00
59110;BME280;44895;47.438;18.978;2023-01-29T16:00:06;100864.31;;;-0.58;100.00
59110;BME280;44895;47.438;18.978;2023-01-29T16:03:18;100859.63;;;-0.50;100.00
59110;BME280;44895;47.438;18.978;2023-01-29T16:06:23;100861.63;;;-0.65;100.00
59110;BME280;44895;47.438;18.978;2023-01-29T16:09:28;100865.16;;;-0.58;100.00
59110;BME280;44895;47.438;18.978;2023-01-29T16:12:33;100867.63;;;-0.50;100.00
59110;BME280;44895;47.438;18.978;2023-01-29T16:15:38;100858.88;;;-0.85;100.00
59110;BME280;44895;47.438;18.978;2023-01-29T16:18:56;100869.84;;;-0.67;100.00
59110;BME280;44895;47.438;18.978;2023-01-29T16:22:02;100877.44;;;-0.63;100.00
59110;BME280;44895;47.438;18.978;2023-01-29T16:25:11;100879.22;;;-0.77;100.00
59110;BME280;44895;47.438;18.978;2023-01-29T16:28:18;100880.06;;;-0.77;100.00
59110;BME280;44895;47.438;18.978;2023-01-29T16:31:27;100881.72;;;-0.76;100.00
59110;BME280;44895;47.438;18.978;2023-01-29T16:34:35;100890.75;;;-0.70;100.00
59110;BME280;44895;47.438;18.978;2023-01-29T16:37:41;100894.44;;;-1.13;100.00
59110;BME280;44895;47.438;18.978;2023-01-29T16:44:37;100885.69;;;-1.00;100.00
59110;BME280;44895;47.438;18.978;2023-01-29T16:47:41;100899.00;;;-1.00;100.00
59110;BME280;44895;47.438;18.978;2023-01-29T16:50:46;100893.56;;;-0.85;100.00
59110;BME280;44895;47.438;18.978;2023-01-29T16:54:16;100904.53;;;-0.67;100.00
59110;BME280;44895;47.438;18.978;2023-01-29T16:57:29;100895.66;;;-0.74;100.00
59110;BME280;44895;47.438;18.978;2023-01-29T17:00:34;100900.72;;;-0.92;100.00
59110;BME280;44895;47.438;18.978;2023-01-29T17:03:39;100893.31;;;-0.97;100.00
59110;BME280;44895;47.438;18.978;2023-01-29T17:06:53;100898.66;;;-0.90;100.00
59110;BME280;44895;47.438;18.978;2023-01-29T17:10:00;100898.50;;;-0.82;100.00
59110;BME280;44895;47.438;18.978;2023-01-29T17:13:07;100890.19;;;-1.01;100.00
59110;BME280;44895;47.438;18.978;2023-01-29T17:19:28;100889.75;;;-1.11;100.00
59110;BME280;44895;47.438;18.978;2023-01-29T17:22:32;100895.09;;;-1.04;100.00
59110;BME280;44895;47.438;18.978;2023-01-29T17:25:36;100897.31;;;-1.15;100.00
59110;BME280;44895;47.438;18.978;2023-01-29T17:28:41;100899.28;;;-1.23;100.00
59110;BME280;44895;47.438;18.978;2023-01-29T17:31:46;100892.81;;;-1.14;100.00
59110;BME280;44895;47.438;18.978;2023-01-29T17:34:50;100890.34;;;-1.44;100.00
59110;BME280;44895;47.438;18.978;2023-01-29T17:37:54;100891.03;;;-1.35;100.00
59110;BME280;44895;47.438;18.978;2023-01-29T17:41:08;100881.28;;;-1.21;100.00
59110;BME280;44895;47.438;18.978;2023-01-29T17:44:15;100882.94;;;-1.20;100.00
59110;BME280;44895;47.438;18.978;2023-01-29T17:47:21;100882.19;;;-1.36;100.00
59110;BME280;44895;47.438;18.978;2023-01-29T17:50:26;100883.41;;;-1.38;100.00
59110;BME280;44895;47.438;18.978;2023-01-29T17:53:32;100872.81;;;-1.32;100.00
59110;BME280;44895;47.438;18.978;2023-01-29T17:56:36;100864.28;;;-1.13;100.00
59110;BME280;44895;47.438;18.978;2023-01-29T17:59:40;100862.59;;;-1.28;100.00
59110;BME280;44895;47.438;18.978;2023-01-29T18:02:46;100859.94;;;-1.21;100.00
59110;BME280;44895;47.438;18.978;2023-01-29T18:05:51;100849.91;;;-1.54;100.00
59110;BME280;44895;47.438;18.978;2023-01-29T18:08:56;100863.50;;;-1.42;100.00
59110;BME280;44895;47.438;18.978;2023-01-29T18:12:01;100851.81;;;-1.41;100.00
59110;BME280;44895;47.438;18.978;2023-01-29T18:15:05;100848.81;;;-1.60;100.00
59110;BME280;44895;47.438;18.978;2023-01-29T18:18:18;100858.56;;;-1.74;100.00
59110;BME280;44895;47.438;18.978;2023-01-29T18:21:23;100841.28;;;-1.56;100.00
59110;BME280;44895;47.438;18.978;2023-01-29T18:24:26;100847.25;;;-1.54;100.00
59110;BME280;44895;47.438;18.978;2023-01-29T18:27:31;100848.38;;;-1.92;100.00
59110;BME280;44895;47.438;18.978;2023-01-29T18:30:35;100834.81;;;-1.69;100.00
59110;BME280;44895;47.438;18.978;2023-01-29T18:33:40;100833.09;;;-1.83;100.00
59110;BME280;44895;47.438;18.978;2023-01-29T18:36:43;100848.22;;;-1.62;100.00
59110;BME280;44895;47.438;18.978;2023-01-29T18:39:51;100836.56;;;-1.83;100.00
59110;BME280;44895;47.438;18.978;2023-01-29T18:42:56;100841.00;;;-1.68;100.00
59110;BME280;44895;47.438;18.978;2023-01-29T18:46:04;100838.78;;;-1.65;100.00
59110;BME280;44895;47.438;18.978;2023-01-29T18:49:10;100835.03;;;-1.99;100.00
59110;BME280;44895;47.438;18.978;2023-01-29T18:52:17;100839.94;;;-1.95;100.00
59110;BME280;44895;47.438;18.978;2023-01-29T18:55:22;100845.47;;;-1.97;100.00
59110;BME280;44895;47.438;18.978;2023-01-29T18:58:29;100847.56;;;-1.92;100.00
59110;BME280;44895;47.438;18.978;2023-01-29T19:01:34;100840.94;;;-1.75;100.00
59110;BME280;44895;47.438;18.978;2023-01-29T19:04:38;100840.28;;;-2.05;100.00
59110;BME280;44895;47.438;18.978;2023-01-29T19:07:42;100842.75;;;-2.04;100.00
59110;BME280;44895;47.438;18.978;2023-01-29T19:10:46;100844.34;;;-2.09;100.00
59110;BME280;44895;47.438;18.978;2023-01-29T19:13:51;100841.88;;;-2.11;100.00
59110;BME280;44895;47.438;18.978;2023-01-29T19:16:55;100841.44;;;-2.15;100.00
59110;BME280;44895;47.438;18.978;2023-01-29T19:19:59;100842.06;;;-2.34;100.00
59110;BME280;44895;47.438;18.978;2023-01-29T19:23:05;100834.53;;;-2.09;100.00
59110;BME280;44895;47.438;18.978;2023-01-29T19:26:09;100844.75;;;-2.34;100.00
59110;BME280;44895;47.438;18.978;2023-01-29T19:29:14;100831.22;;;-2.33;100.00
59110;BME280;44895;47.438;18.978;2023-01-29T19:32:19;100826.31;;;-2.14;100.00
59110;BME280;44895;47.438;18.978;2023-01-29T19:35:25;100828.16;;;-2.08;100.00
59110;BME280;44895;47.438;18.978;2023-01-29T19:38:30;100839.84;;;-2.31;100.00
59110;BME280;44895;47.438;18.978;2023-01-29T19:41:36;100829.78;;;-2.14;100.00
59110;BME280;44895;47.438;18.978;2023-01-29T19:44:40;100818.13;;;-2.34;100.00
59110;BME280;44895;47.438;18.978;2023-01-29T19:47:44;100826.28;;;-2.36;100.00
59110;BME280;44895;47.438;18.978;2023-01-29T19:50:54;100816.47;;;-2.57;100.00
59110;BME280;44895;47.438;18.978;2023-01-29T19:53:58;100822.50;;;-2.26;100.00
59110;BME280;44895;47.438;18.978;2023-01-29T19:57:04;100818.88;;;-2.62;100.00
59110;BME280;44895;47.438;18.978;2023-01-29T20:00:10;100825.47;;;-2.36;100.00
59110;BME280;44895;47.438;18.978;2023-01-29T20:03:15;100820.25;;;-2.44;100.00
59110;BME280;44895;47.438;18.978;2023-01-29T20:06:23;100826.09;;;-2.34;100.00
59110;BME280;44895;47.438;18.978;2023-01-29T20:09:28;100827.09;;;-2.57;100.00
59110;BME280;44895;47.438;18.978;2023-01-29T20:12:33;100815.31;;;-2.48;100.00
59110;BME280;44895;47.438;18.978;2023-01-29T20:15:41;100831.97;;;-2.60;100.00
59110;BME280;44895;47.438;18.978;2023-01-29T20:18:46;100831.34;;;-2.41;100.00
59110;BME280;44895;47.438;18.978;2023-01-29T20:21:53;100827.69;;;-2.40;100.00
59110;BME280;44895;47.438;18.978;2023-01-29T20:24:58;100828.78;;;-2.34;100.00
59110;BME280;44895;47.438;18.978;2023-01-29T20:28:04;100826.91;;;-2.55;100.00
59110;BME280;44895;47.438;18.978;2023-01-29T20:31:10;100815.63;;;-2.57;100.00
59110;BME280;44895;47.438;18.978;2023-01-29T20:34:15;100813.91;;;-2.43;100.00
59110;BME280;44895;47.438;18.978;2023-01-29T20:37:20;100808.78;;;-2.67;100.00
59110;BME280;44895;47.438;18.978;2023-01-29T20:40:25;100809.25;;;-2.41;100.00
59110;BME280;44895;47.438;18.978;2023-01-29T20:43:29;100808.41;;;-2.64;100.00
59110;BME280;44895;47.438;18.978;2023-01-29T20:46:33;100815.13;;;-2.46;100.00
59110;BME280;44895;47.438;18.978;2023-01-29T20:49:41;100802.06;;;-2.41;100.00
59110;BME280;44895;47.438;18.978;2023-01-29T20:52:45;100796.94;;;-2.64;100.00
59110;BME280;44895;47.438;18.978;2023-01-29T20:55:52;100809.00;;;-2.47;100.00
59110;BME280;44895;47.438;18.978;2023-01-29T20:58:59;100810.94;;;-2.55;100.00
59110;BME280;44895;47.438;18.978;2023-01-29T21:02:03;100813.22;;;-2.52;100.00
59110;BME280;44895;47.438;18.978;2023-01-29T21:05:08;100811.47;;;-2.45;100.00
59110;BME280;44895;47.438;18.978;2023-01-29T21:08:13;100813.31;;;-2.46;100.00
59110;BME280;44895;47.438;18.978;2023-01-29T21:11:17;100823.28;;;-2.69;100.00
59110;BME280;44895;47.438;18.978;2023-01-29T21:14:22;100831.13;;;-2.61;100.00
59110;BME280;44895;47.438;18.978;2023-01-29T21:17:26;100817.34;;;-2.86;100.00
59110;BME280;44895;47.438;18.978;2023-01-29T21:20:31;100826.03;;;-2.78;100.00
59110;BME280;44895;47.438;18.978;2023-01-29T21:23:35;100821.53;;;-2.99;100.00
59110;BME280;44895;47.438;18.978;2023-01-29T21:26:39;100842.59;;;-3.27;100.00
59110;BME280;44895;47.438;18.978;2023-01-29T21:29:44;100838.50;;;-3.15;100.00
59110;BME280;44895;47.438;18.978;2023-01-29T21:32:49;100839.50;;;-3.31;100.00
59110;BME280;44895;47.438;18.978;2023-01-29T21:35:57;100822.53;;;-3.45;100.00
59110;BME280;44895;47.438;18.978;2023-01-29T21:39:03;100818.69;;;-3.27;100.00
59110;BME280;44895;47.438;18.978;2023-01-29T21:42:18;100831.81;;;-3.25;100.00
59110;BME280;44895;47.438;18.978;2023-01-29T21:45:41;100828.22;;;-3.63;100.00
59110;BME280;44895;47.438;18.978;2023-01-29T21:48:46;100818.78;;;-3.65;100.00
59110;BME280;44895;47.438;18.978;2023-01-29T21:51:49;100828.88;;;-3.61;100.00
59110;BME280;44895;47.438;18.978;2023-01-29T21:54:53;100818.00;;;-3.51;100.00
59110;BME280;44895;47.438;18.978;2023-01-29T21:57:57;100816.41;;;-3.60;100.00
59110;BME280;44895;47.438;18.978;2023-01-29T22:01:03;100815.66;;;-3.69;100.00
59110;BME280;44895;47.438;18.978;2023-01-29T22:04:06;100812.47;;;-3.49;100.00
59110;BME280;44895;47.438;18.978;2023-01-29T22:07:12;100810.34;;;-3.69;100.00
59110;BME280;44895;47.438;18.978;2023-01-29T22:10:17;100802.03;;;-3.66;100.00
59110;BME280;44895;47.438;18.978;2023-01-29T22:13:21;100805.50;;;-3.50;100.00
59110;BME280;44895;47.438;18.978;2023-01-29T22:16:25;100799.47;;;-4.12;100.00
59110;BME280;44895;47.438;18.978;2023-01-29T22:19:28;100794.63;;;-3.55;100.00
59110;BME280;44895;47.438;18.978;2023-01-29T22:22:32;100796.06;;;-3.98;100.00
59110;BME280;44895;47.438;18.978;2023-01-29T22:25:36;100782.59;;;-3.66;100.00
59110;BME280;44895;47.438;18.978;2023-01-29T22:28:40;100787.19;;;-3.75;100.00
59110;BME280;44895;47.438;18.978;2023-01-29T22:31:44;100786.56;;;-3.62;100.00
59110;BME280;44895;47.438;18.978;2023-01-29T22:34:47;100777.41;;;-3.74;100.00
59110;BME280;44895;47.438;18.978;2023-01-29T22:37:52;100776.66;;;-3.83;100.00
59110;BME280;44895;47.438;18.978;2023-01-29T22:40:58;100775.19;;;-3.86;100.00
59110;BME280;44895;47.438;18.978;2023-01-29T22:44:01;100753.56;;;-3.83;100.00
59110;BME280;44895;47.438;18.978;2023-01-29T22:47:05;100758.63;;;-3.73;100.00
59110;BME280;44895;47.438;18.978;2023-01-29T22:50:09;100758.25;;;-3.40;100.00
59110;BME280;44895;47.438;18.978;2023-01-29T22:53:13;100749.94;;;-3.52;100.00
59110;BME280;44895;47.438;18.978;2023-01-29T22:56:18;100745.31;;;-3.28;100.00
59110;BME280;44895;47.438;18.978;2023-01-29T22:59:22;100751.97;;;-3.17;100.00
59110;BME280;44895;47.438;18.978;2023-01-29T23:02:26;100750.19;;;-3.32;100.00
59110;BME280;44895;47.438;18.978;2023-01-29T23:05:30;100752.66;;;-3.45;100.00
59110;BME280;44895;47.438;18.978;2023-01-29T23:08:33;100740.56;;;-3.33;100.00
59110;BME280;44895;47.438;18.978;2023-01-29T23:11:37;100742.22;;;-3.32;100.00
59110;BME280;44895;47.438;18.978;2023-01-29T23:14:41;100741.19;;;-3.31;100.00
59110;BME280;44895;47.438;18.978;2023-01-29T23:17:45;100724.81;;;-3.34;100.00
59110;BME280;44895;47.438;18.978;2023-01-29T23:20:55;100735.28;;;-3.11;100.00
59110;BME280;44895;47.438;18.978;2023-01-29T23:23:59;100715.13;;;-3.42;100.00
59110;BME280;44895;47.438;18.978;2023-01-29T23:27:03;100733.94;;;-3.22;100.00
59110;BME280;44895;47.438;18.978;2023-01-29T23:30:18;100727.00;;;-3.23;100.00
59110;BME280;44895;47.438;18.978;2023-01-29T23:33:22;100722.50;;;-3.37;100.00
59110;BME280;44895;47.438;18.978;2023-01-29T23:36:26;100725.75;;;-3.57;100.00
59110;BME280;44895;47.438;18.978;2023-01-29T23:39:30;100700.00;;;-3.71;100.00
59110;BME280;44895;47.438;18.978;2023-01-29T23:42:34;100710.94;;;-3.81;100.00
59110;BME280;44895;47.438;18.978;2023-01-29T23:45:39;100697.66;;;-3.96;100.00
59110;BME280;44895;47.438;18.978;2023-01-29T23:48:43;100711.09;;;-3.83;100.00
59110;BME280;44895;47.438;18.978;2023-01-29T23:51:48;100702.50;;;-3.85;100.00
59110;BME280;44895;47.438;18.978;2023-01-29T23:54:52;100713.31;;;-4.01;100.00
59110;BME280;44895;47.438;18.978;2023-01-29T23:57:55;100711.66;;;-4.02;100.00
